Zoar, Ohio
Current Conditions -  °F | °C
As of 6:53 PM on Wednesday 22 Oct 2014 (Local Time) from KPHD Reporting Station
Overcast Overcast  
Wind Chill: 50°   Ceiling: 3000
Heat Index: 50°   Visibility: 10mi
Dew Point: 42°   Wind: 7mph
Humidity: 74%   Direction: 330°NNW
Pressure: 30.23"   Gusts: NA
Location:  40.61°N, 81.42°W
Report Text: KPHD 222253Z AUTO 33006KT 10SM OVC030 10/06 A3023 RMK AO2 SLP239 T01000056
Loading
Personal Weather Stations






























Interactive Weather Map
Tropical Storm Tracking
New forecast layout! Learn more

10-Day Weather Forecast

Advertisements
Track Severe Weather on mobile